Time;durP1;ratioP1;P1;durP2;ratioP2;P2;SDS_P1;SDS_P2;PMS_P1;PMS_P2;Temp;Humidity;BMP_temperature;BMP_pressure;BME280_temperature;BME280_humidity;BME280_pressure;Samples;Min_cycle;Max_cycle;Signal;HPM_P1;HPM_P2
2024/01/17 00:02:08;;;;;;;1.90;1.80;;;2.40;99.90;;;;;;4977573;28;20088;-91
2024/01/17 00:04:33;;;;;;;1.92;1.83;;;2.40;1.00;;;;;;4988993;28;20701;-92
2024/01/17 00:07:01;;;;;;;1.90;1.80;;;2.40;1.00;;;;;;4979154;28;20046;-92
2024/01/17 00:09:26;;;;;;;1.90;1.80;;;2.40;1.00;;;;;;4978623;28;20041;-90
2024/01/17 00:12:04;;;;;;;1.92;1.83;;;2.40;1.00;;;;;;4982499;28;20050;-94
2024/01/17 00:14:31;;;;;;;1.98;1.88;;;2.40;1.00;;;;;;4980450;28;20077;-91
2024/01/17 00:16:57;;;;;;;1.98;1.88;;;2.30;1.00;;;;;;4979456;28;20344;-93
2024/01/17 00:19:23;;;;;;;2.00;1.90;;;2.30;1.00;;;;;;4977569;28;20041;-90
2024/01/17 00:21:50;;;;;;;1.90;1.80;;;2.40;1.00;;;;;;4981751;28;20125;-91
2024/01/17 00:24:16;;;;;;;1.92;1.83;;;2.40;1.00;;;;;;4979711;28;20092;-91
2024/01/17 00:26:42;;;;;;;1.90;1.80;;;2.40;1.00;;;;;;4999050;28;20041;-88
2024/01/17 00:29:08;;;;;;;1.85;1.75;;;2.40;1.00;;;;;;4979661;28;20046;-91
2024/01/17 00:31:34;;;;;;;1.80;1.70;;;2.40;1.00;;;;;;4978147;28;20053;-94
2024/01/17 00:34:02;;;;;;;1.88;1.77;;;2.40;1.00;;;;;;4981865;28;20080;-93
2024/01/17 00:36:28;;;;;;;1.90;1.80;;;2.40;1.00;;;;;;4979089;28;20081;-92
2024/01/17 00:38:54;;;;;;;1.83;1.73;;;2.40;1.00;;;;;;4980260;28;20121;-91
2024/01/17 00:41:34;;;;;;;1.88;1.77;;;2.30;1.00;;;;;;4983148;28;20045;-95
2024/01/17 00:44:21;;;;;;;1.90;1.80;;;2.40;1.00;;;;;;4981330;28;20550;-93
2024/01/17 00:46:56;;;;;;;1.98;1.88;;;2.50;1.00;;;;;;4997894;28;20053;-94
2024/01/17 00:49:21;;;;;;;1.95;1.85;;;2.40;1.00;;;;;;4994455;28;20038;-90
2024/01/17 00:51:47;;;;;;;2.00;1.90;;;2.40;1.00;;;;;;4995883;28;20061;-92
2024/01/17 00:54:13;;;;;;;2.03;1.92;;;2.40;1.00;;;;;;4983631;28;20128;-90
2024/01/17 00:56:42;;;;;;;2.08;1.98;;;2.40;1.00;;;;;;4981191;28;20041;-94
2024/01/17 00:59:10;;;;;;;1.80;1.70;;;2.40;1.00;;;;;;4976887;28;20491;-94
2024/01/17 01:01:35;;;;;;;1.85;1.75;;;2.40;1.00;;;;;;4979051;28;20085;-93
2024/01/17 01:04:01;;;;;;;1.90;1.80;;;2.50;1.00;;;;;;4980726;28;20041;-93
2024/01/17 01:06:28;;;;;;;1.90;1.80;;;2.50;1.00;;;;;;4979823;28;20080;-92
2024/01/17 01:08:54;;;;;;;1.80;1.70;;;2.50;1.00;;;;;;4983191;28;20037;-94
2024/01/17 01:11:19;;;;;;;1.88;1.77;;;2.40;1.00;;;;;;4981031;28;20057;-90
2024/01/17 01:13:53;;;;;;;1.90;1.80;;;2.40;1.00;;;;;;4998548;28;20127;-92
2024/01/17 01:16:19;;;;;;;1.92;1.83;;;2.40;1.00;;;;;;4978416;28;20059;-92
2024/01/17 01:18:45;;;;;;;2.00;1.90;;;2.40;1.00;;;;;;4994526;28;20042;-93
2024/01/17 01:21:10;;;;;;;2.00;1.90;;;2.30;1.00;;;;;;4979518;28;20045;-92
2024/01/17 01:23:36;;;;;;;1.90;1.80;;;2.30;1.00;;;;;;4981757;28;20159;-93
2024/01/17 01:26:02;;;;;;;1.88;1.77;;;2.30;1.00;;;;;;4977894;28;20046;-91
2024/01/17 01:28:30;;;;;;;1.92;1.83;;;2.20;1.00;;;;;;4979629;28;20044;-91
2024/01/17 01:31:03;;;;;;;2.00;1.90;;;2.20;1.00;;;;;;4981182;28;20045;-91
2024/01/17 01:33:29;;;;;;;1.80;1.70;;;2.20;1.00;;;;;;4995590;28;20476;-90
2024/01/17 01:35:54;;;;;;;1.90;1.80;;;2.10;1.00;;;;;;4979744;28;20138;-93
2024/01/17 01:38:20;;;;;;;1.90;1.80;;;2.10;1.00;;;;;;4981508;28;20471;-91
2024/01/17 01:40:49;;;;;;;1.80;1.70;;;2.10;1.00;;;;;;4981111;28;20052;-90
2024/01/17 01:43:19;;;;;;;1.90;1.80;;;2.00;1.00;;;;;;4981179;28;20129;-91
2024/01/17 01:46:03;;;;;;;2.00;1.90;;;2.00;10.40;;;;;;4996917;28;20041;-91
2024/01/17 01:48:35;;;;;;;1.80;1.70;;;2.00;62.10;;;;;;4994167;28;20046;-92
2024/01/17 01:51:01;;;;;;;1.90;1.80;;;2.00;99.90;;;;;;4977022;28;20503;-93
2024/01/17 01:53:33;;;;;;;1.92;1.83;;;2.00;99.90;;;;;;4974976;28;20522;-93
2024/01/17 01:55:59;;;;;;;1.80;1.70;;;2.00;99.90;;;;;;4973640;28;20046;-92
2024/01/17 01:58:26;;;;;;;1.95;1.85;;;2.00;99.90;;;;;;4976005;28;20530;-93
2024/01/17 02:00:56;;;;;;;2.00;1.90;;;2.00;99.90;;;;;;4976458;28;20084;-91
2024/01/17 02:03:29;;;;;;;2.00;1.90;;;2.10;99.90;;;;;;4973590;28;20183;-95
2024/01/17 02:05:56;;;;;;;1.88;1.77;;;2.10;99.90;;;;;;4991363;28;20115;-93
2024/01/17 02:08:21;;;;;;;2.00;1.90;;;2.20;99.90;;;;;;4992308;28;20046;-92
2024/01/17 02:10:47;;;;;;;2.00;1.90;;;2.20;99.90;;;;;;4978875;28;20050;-93
2024/01/17 02:13:13;;;;;;;1.90;1.80;;;2.30;82.70;;;;;;4979018;28;20108;-92
2024/01/17 02:15:39;;;;;;;1.90;1.80;;;2.30;84.90;;;;;;4976396;28;20042;-92
2024/01/17 02:18:05;;;;;;;2.00;1.90;;;2.20;63.10;;;;;;4977371;28;20049;-92
2024/01/17 02:20:32;;;;;;;1.90;1.80;;;2.20;82.10;;;;;;4978921;28;20038;-93
2024/01/17 02:22:57;;;;;;;1.90;1.80;;;2.30;60.70;;;;;;4977760;28;20049;-92
2024/01/17 02:25:23;;;;;;;1.80;1.70;;;2.30;20.40;;;;;;4978891;28;20046;-89
2024/01/17 02:27:49;;;;;;;1.80;1.70;;;2.30;24.90;;;;;;4977197;28;20121;-93
2024/01/17 02:30:18;;;;;;;1.80;1.70;;;2.30;1.00;;;;;;4978677;28;20125;-93
2024/01/17 02:32:48;;;;;;;1.80;1.70;;;2.20;1.00;;;;;;4971724;28;20085;-92
2024/01/17 02:35:14;;;;;;;1.80;1.70;;;2.30;1.00;;;;;;4979967;28;20054;-92
2024/01/17 02:37:40;;;;;;;1.77;1.67;;;2.20;2.60;;;;;;4977915;28;20045;-93
2024/01/17 02:40:07;;;;;;;1.90;1.80;;;2.20;24.40;;;;;;4978144;28;20048;-92
2024/01/17 02:42:32;;;;;;;1.77;1.67;;;2.20;25.50;;;;;;4978375;28;20125;-92
2024/01/17 02:44:58;;;;;;;1.70;1.60;;;2.20;23.60;;;;;;4978026;28;20861;-92
2024/01/17 02:47:24;;;;;;;1.73;1.63;;;2.20;18.10;;;;;;4993119;28;20088;-91
2024/01/17 02:49:50;;;;;;;1.70;1.60;;;2.20;51.40;;;;;;4977791;28;20050;-91
2024/01/17 02:52:15;;;;;;;1.80;1.70;;;2.10;60.20;;;;;;4975983;28;20037;-92
2024/01/17 02:54:41;;;;;;;1.80;1.70;;;2.20;54.40;;;;;;4977994;28;20056;-92
2024/01/17 02:57:07;;;;;;;1.80;1.70;;;2.10;4.30;;;;;;4978087;28;20069;-93
2024/01/17 02:59:35;;;;;;;2.03;1.92;;;2.20;1.00;;;;;;4976560;28;20450;-93
2024/01/17 03:02:01;;;;;;;1.90;1.80;;;2.20;1.00;;;;;;4978467;28;20041;-93
2024/01/17 03:04:27;;;;;;;1.80;1.70;;;2.10;1.00;;;;;;4978266;28;20053;-92
2024/01/17 03:06:53;;;;;;;1.90;1.80;;;2.10;1.00;;;;;;4993685;28;20102;-93
2024/01/17 03:09:18;;;;;;;2.10;2.00;;;2.10;1.00;;;;;;4974208;28;20480;-92
2024/01/17 03:11:47;;;;;;;1.90;1.80;;;2.10;1.00;;;;;;4976519;28;20575;-92
2024/01/17 03:14:13;;;;;;;1.90;1.80;;;2.10;1.00;;;;;;4977375;28;20049;-92
2024/01/17 03:16:39;;;;;;;2.00;1.90;;;2.10;1.00;;;;;;4976053;28;20069;-93
2024/01/17 03:19:06;;;;;;;1.90;1.80;;;2.10;1.00;;;;;;5010042;28;20046;-93
2024/01/17 03:21:31;;;;;;;1.83;1.73;;;2.10;1.00;;;;;;4979144;28;20052;-93
2024/01/17 03:23:58;;;;;;;1.90;1.80;;;2.00;1.00;;;;;;4979584;28;20037;-93
2024/01/17 03:26:24;;;;;;;1.90;1.80;;;2.00;1.00;;;;;;4995325;28;20046;-92
2024/01/17 03:28:49;;;;;;;1.90;1.80;;;1.90;1.00;;;;;;4972640;28;20052;-92
2024/01/17 03:31:15;;;;;;;1.90;1.80;;;1.90;26.40;;;;;;4978365;28;20124;-92
2024/01/17 03:33:41;;;;;;;2.00;1.90;;;1.90;19.20;;;;;;4976755;28;20133;-92
2024/01/17 03:36:07;;;;;;;1.90;1.80;;;1.90;43.70;;;;;;4977775;28;20136;-91
2024/01/17 03:38:32;;;;;;;2.03;1.92;;;1.90;92.90;;;;;;4977074;28;20045;-91
2024/01/17 03:41:00;;;;;;;1.90;1.80;;;1.90;92.00;;;;;;4976761;28;20129;-91
2024/01/17 03:43:26;;;;;;;1.90;1.80;;;1.90;99.90;;;;;;4981650;28;20057;-90
2024/01/17 03:45:54;;;;;;;1.90;1.80;;;1.80;83.70;;;;;;4980303;28;20041;-93
2024/01/17 03:48:20;;;;;;;1.90;1.80;;;1.80;95.10;;;;;;4982191;28;20074;-92
2024/01/17 03:50:45;;;;;;;2.10;2.00;;;1.80;99.90;;;;;;4996019;28;20053;-92
2024/01/17 03:53:11;;;;;;;1.90;1.80;;;1.70;99.90;;;;;;4995217;28;20415;-90
2024/01/17 03:55:37;;;;;;;2.03;1.92;;;1.70;99.90;;;;;;4979272;28;20133;-90
2024/01/17 03:58:03;;;;;;;2.00;1.90;;;1.70;99.90;;;;;;4980579;28;20069;-90
2024/01/17 04:00:29;;;;;;;2.10;2.00;;;1.70;99.90;;;;;;4980786;28;20077;-90
2024/01/17 04:02:54;;;;;;;2.10;2.00;;;1.70;99.90;;;;;;4994210;28;20053;-91
2024/01/17 04:05:20;;;;;;;2.15;2.05;;;1.70;99.90;;;;;;4979246;28;20486;-92
2024/01/17 04:07:46;;;;;;;2.20;2.10;;;1.80;99.90;;;;;;4977616;28;20045;-90
2024/01/17 04:10:12;;;;;;;2.10;2.00;;;1.70;99.90;;;;;;4982032;28;20073;-92
2024/01/17 04:12:38;;;;;;;2.13;2.03;;;1.80;99.90;;;;;;4979072;28;20088;-92
2024/01/17 04:15:05;;;;;;;2.20;2.10;;;1.80;99.90;;;;;;4990700;28;20081;-88
2024/01/17 04:17:31;;;;;;;2.10;2.00;;;1.80;99.90;;;;;;4994965;28;20045;-90
2024/01/17 04:19:56;;;;;;;2.17;2.08;;;1.80;99.90;;;;;;4979625;28;20049;-92
2024/01/17 04:22:22;;;;;;;2.08;1.98;;;1.80;99.90;;;;;;4976994;28;20133;-88
2024/01/17 04:24:51;;;;;;;2.03;1.92;;;1.80;99.90;;;;;;4996509;28;20066;-92
2024/01/17 04:27:17;;;;;;;2.10;2.00;;;1.90;99.90;;;;;;4995066;28;20041;-92
2024/01/17 04:29:42;;;;;;;2.10;2.00;;;1.80;99.90;;;;;;4991668;28;20046;-90
2024/01/17 04:32:08;;;;;;;2.08;1.98;;;1.90;86.90;;;;;;4992829;28;20046;-92
2024/01/17 04:34:34;;;;;;;2.10;2.00;;;1.90;30.60;;;;;;4979027;28;20052;-92
2024/01/17 04:36:59;;;;;;;2.10;2.00;;;1.90;37.20;;;;;;4975972;28;20125;-91
2024/01/17 04:39:25;;;;;;;2.10;2.00;;;2.00;1.00;;;;;;4978430;28;20100;-87
2024/01/17 04:41:51;;;;;;;2.13;2.03;;;2.00;1.00;;;;;;4976072;28;20495;-91
2024/01/17 04:44:17;;;;;;;2.10;2.00;;;1.90;1.00;;;;;;4976044;28;20112;-89
2024/01/17 04:46:43;;;;;;;2.10;2.00;;;1.90;1.00;;;;;;4992134;28;20103;-90
2024/01/17 04:49:09;;;;;;;2.08;1.98;;;1.80;1.00;;;;;;4973954;28;20030;-88
2024/01/17 04:51:35;;;;;;;2.00;1.90;;;1.90;1.00;;;;;;4975614;28;20053;-89
2024/01/17 04:54:01;;;;;;;2.00;1.90;;;1.90;1.00;;;;;;4974380;28;20084;-90
2024/01/17 04:56:27;;;;;;;2.10;2.00;;;1.90;1.00;;;;;;4993023;28;20045;-90
2024/01/17 04:58:53;;;;;;;2.13;2.03;;;1.80;1.00;;;;;;4987946;28;20038;-87
2024/01/17 05:01:19;;;;;;;2.13;2.03;;;1.90;1.00;;;;;;4986292;28;20108;-87
2024/01/17 05:03:45;;;;;;;2.10;2.00;;;1.90;1.00;;;;;;4987778;28;20070;-89
2024/01/17 05:06:11;;;;;;;2.20;2.10;;;1.90;1.00;;;;;;4973738;28;20076;-86
2024/01/17 05:08:36;;;;;;;2.17;2.08;;;1.90;1.00;;;;;;4989885;28;20622;-89
2024/01/17 05:11:02;;;;;;;2.08;1.98;;;1.90;1.00;;;;;;4989853;28;20046;-91
2024/01/17 05:13:28;;;;;;;2.05;1.95;;;1.90;1.00;;;;;;4984487;28;20042;-87
2024/01/17 05:15:54;;;;;;;2.10;2.00;;;1.80;1.00;;;;;;4990677;28;20511;-87
2024/01/17 05:18:19;;;;;;;2.10;2.00;;;1.80;1.00;;;;;;4986770;28;20494;-84
2024/01/17 05:20:46;;;;;;;2.03;1.92;;;1.90;1.00;;;;;;4972092;28;20050;-88
2024/01/17 05:23:12;;;;;;;2.00;1.90;;;1.80;1.00;;;;;;4986585;28;20080;-89
2024/01/17 05:25:38;;;;;;;2.17;2.08;;;1.80;1.00;;;;;;4988110;28;20491;-86
2024/01/17 05:28:06;;;;;;;2.08;1.98;;;1.80;1.00;;;;;;4972070;28;20049;-88
2024/01/17 05:30:32;;;;;;;2.20;2.10;;;1.80;1.00;;;;;;4972322;28;20046;-88
2024/01/17 05:32:58;;;;;;;2.00;1.90;;;1.80;1.00;;;;;;4970350;28;20149;-89
2024/01/17 05:35:23;;;;;;;2.08;1.98;;;1.70;1.00;;;;;;4987222;28;20046;-89
2024/01/17 05:37:49;;;;;;;2.03;1.92;;;1.70;1.00;;;;;;4973595;28;20050;-87
2024/01/17 05:40:15;;;;;;;2.08;1.98;;;1.70;1.00;;;;;;4975708;28;20049;-86
2024/01/17 05:42:44;;;;;;;2.10;2.00;;;1.70;1.00;;;;;;4973227;28;20526;-86
2024/01/17 05:45:10;;;;;;;2.20;2.10;;;1.60;1.00;;;;;;4972721;28;20578;-88
2024/01/17 05:47:39;;;;;;;2.25;2.15;;;1.70;1.00;;;;;;4971637;28;20160;-86
2024/01/17 05:50:23;;;;;;;2.22;2.13;;;1.60;1.00;;;;;;4984584;28;20042;-87
2024/01/17 05:52:49;;;;;;;2.35;2.25;;;1.60;1.00;;;;;;4986142;28;20124;-86
2024/01/17 05:55:15;;;;;;;2.22;2.13;;;1.60;1.00;;;;;;4985541;28;20194;-86
2024/01/17 05:57:41;;;;;;;2.28;2.17;;;1.50;1.00;;;;;;4975668;28;20042;-87
2024/01/17 06:00:12;;;;;;;2.33;2.22;;;1.50;1.00;;;;;;4986498;28;20053;-88
2024/01/17 06:02:38;;;;;;;2.25;2.15;;;1.50;1.00;;;;;;4970426;28;20045;-86
2024/01/17 06:05:05;;;;;;;2.25;2.15;;;1.60;1.00;;;;;;4968125;28;20089;-88
2024/01/17 06:07:31;;;;;;;2.33;2.22;;;1.50;1.00;;;;;;4989225;28;20046;-87
2024/01/17 06:09:57;;;;;;;2.42;2.33;;;1.50;1.00;;;;;;4986850;28;20414;-87
2024/01/17 06:12:23;;;;;;;2.33;2.22;;;1.60;1.00;;;;;;4986815;28;20049;-88
2024/01/17 06:14:49;;;;;;;2.45;2.35;;;1.50;1.00;;;;;;4989012;28;20042;-86
2024/01/17 06:17:15;;;;;;;2.25;2.15;;;1.40;1.00;;;;;;4987225;28;20506;-86
2024/01/17 06:19:41;;;;;;;2.55;2.45;;;1.40;1.00;;;;;;4970193;28;20046;-87
2024/01/17 06:22:08;;;;;;;2.42;2.33;;;1.30;1.00;;;;;;4987958;28;20128;-86
2024/01/17 06:24:33;;;;;;;2.45;2.35;;;1.40;1.00;;;;;;4984908;28;20103;-86
2024/01/17 06:27:00;;;;;;;2.55;2.45;;;1.40;1.00;;;;;;4971717;28;20050;-88
2024/01/17 06:29:33;;;;;;;2.45;2.35;;;1.30;1.00;;;;;;4972981;28;20069;-87
2024/01/17 06:32:00;;;;;;;2.40;2.30;;;1.30;1.00;;;;;;4985153;28;20725;-87
2024/01/17 06:34:26;;;;;;;2.47;2.38;;;1.30;1.00;;;;;;4987162;28;20462;-88
2024/01/17 06:36:51;;;;;;;2.47;2.38;;;1.30;1.00;;;;;;4986185;28;20050;-87
2024/01/17 06:39:17;;;;;;;2.60;2.50;;;1.20;1.00;;;;;;4972570;28;20095;-86
2024/01/17 06:41:44;;;;;;;2.47;2.38;;;1.40;1.00;;;;;;5007094;28;20046;-86
2024/01/17 06:44:10;;;;;;;2.50;2.40;;;1.20;1.00;;;;;;4969576;28;20519;-86
2024/01/17 06:46:36;;;;;;;2.47;2.38;;;1.20;1.00;;;;;;4984319;28;20187;-87
2024/01/17 06:49:02;;;;;;;2.58;2.47;;;1.20;1.00;;;;;;4979748;28;20041;-86
2024/01/17 06:51:28;;;;;;;2.60;2.50;;;1.20;1.00;;;;;;4966982;28;20044;-87
2024/01/17 06:53:54;;;;;;;2.53;2.42;;;1.20;1.00;;;;;;4987462;28;20049;-87
2024/01/17 06:56:20;;;;;;;2.47;2.38;;;1.20;1.00;;;;;;4977273;28;20124;-86
2024/01/17 06:58:45;;;;;;;2.60;2.50;;;1.20;1.00;;;;;;4987007;28;20050;-85
2024/01/17 07:01:11;;;;;;;2.50;2.40;;;1.20;1.00;;;;;;4967542;28;20046;-84
2024/01/17 07:03:37;;;;;;;2.70;2.53;;;1.10;1.00;;;;;;4985612;28;20212;-86
2024/01/17 07:06:05;;;;;;;2.50;2.40;;;1.00;1.00;;;;;;4968321;28;20045;-85
2024/01/17 07:08:30;;;;;;;2.50;2.40;;;1.10;1.00;;;;;;4970056;28;20091;-85
2024/01/17 07:10:56;;;;;;;2.45;2.35;;;1.10;1.00;;;;;;4987601;28;20054;-86
2024/01/17 07:13:22;;;;;;;2.58;2.47;;;1.10;1.00;;;;;;4982962;28;20097;-86
2024/01/17 07:15:47;;;;;;;2.38;2.28;;;1.10;1.00;;;;;;4982074;28;20049;-86
2024/01/17 07:18:13;;;;;;;2.53;2.42;;;1.10;1.00;;;;;;4983871;28;20078;-86
2024/01/17 07:20:39;;;;;;;2.90;2.70;;;1.10;1.00;;;;;;4988871;28;20054;-85
2024/01/17 07:23:07;;;;;;;2.50;2.40;;;1.10;1.00;;;;;;4982487;28;20395;-86
2024/01/17 07:25:32;;;;;;;2.45;2.35;;;1.00;1.00;;;;;;4967461;28;20089;-83
2024/01/17 07:27:58;;;;;;;2.35;2.25;;;1.00;1.00;;;;;;4986447;28;20081;-83
2024/01/17 07:30:24;;;;;;;2.38;2.28;;;1.00;1.00;;;;;;4987333;28;20048;-84
2024/01/17 07:32:50;;;;;;;2.40;2.30;;;1.10;1.00;;;;;;4991038;28;20049;-83
2024/01/17 07:35:15;;;;;;;2.50;2.40;;;1.10;1.00;;;;;;4983564;28;20077;-84
2024/01/17 07:37:41;;;;;;;2.30;2.20;;;1.10;1.00;;;;;;4982184;28;20054;-83
2024/01/17 07:40:09;;;;;;;2.47;2.38;;;1.10;1.00;;;;;;4984252;28;20494;-85
2024/01/17 07:42:34;;;;;;;2.50;2.40;;;1.10;1.00;;;;;;4984416;28;20046;-84
2024/01/17 07:45:01;;;;;;;2.50;2.40;;;1.10;1.00;;;;;;4981804;28;20069;-85
2024/01/17 07:47:27;;;;;;;2.47;2.38;;;1.20;1.00;;;;;;4983363;28;20054;-83
2024/01/17 07:49:52;;;;;;;2.60;2.50;;;1.20;1.00;;;;;;4980020;28;20054;-84
2024/01/17 07:52:18;;;;;;;2.50;2.40;;;1.30;1.00;;;;;;4984235;28;20045;-84
2024/01/17 07:54:44;;;;;;;2.47;2.38;;;1.30;1.00;;;;;;4983944;28;20042;-83
2024/01/17 07:57:12;;;;;;;2.50;2.40;;;1.40;1.00;;;;;;4970407;28;20157;-83
2024/01/17 07:59:37;;;;;;;2.50;2.40;;;1.30;1.00;;;;;;4983445;28;20058;-83
2024/01/17 08:02:04;;;;;;;2.53;2.42;;;1.40;1.00;;;;;;4982143;28;20735;-83
2024/01/17 08:04:30;;;;;;;2.45;2.35;;;1.40;1.00;;;;;;4984744;28;20633;-83
2024/01/17 08:06:56;;;;;;;2.47;2.38;;;1.50;99.90;;;;;;4978300;28;20046;-83
2024/01/17 08:09:22;;;;;;;2.47;2.38;;;1.30;1.00;;;;;;4984954;28;20049;-83
2024/01/17 08:11:49;;;;;;;2.58;2.47;;;1.40;99.90;;;;;;4986237;28;20132;-82
2024/01/17 08:14:15;;;;;;;2.45;2.35;;;1.50;99.90;;;;;;4983208;28;20665;-83
2024/01/17 08:16:41;;;;;;;2.38;2.28;;;1.50;99.90;;;;;;4980298;28;20049;-83
2024/01/17 08:19:06;;;;;;;2.35;2.25;;;1.40;99.90;;;;;;4984765;28;20042;-83
2024/01/17 08:21:32;;;;;;;2.50;2.40;;;1.60;99.90;;;;;;4983878;28;20046;-83
2024/01/17 08:24:00;;;;;;;2.53;2.42;;;1.50;99.90;;;;;;4978788;28;20045;-83
2024/01/17 08:26:26;;;;;;;2.28;2.17;;;1.50;99.90;;;;;;4981639;28;20068;-83
2024/01/17 08:28:53;;;;;;;2.30;2.20;;;1.60;99.90;;;;;;4982113;28;20038;-83
2024/01/17 08:31:18;;;;;;;2.20;2.10;;;1.60;99.90;;;;;;4984105;28;20046;-83
2024/01/17 08:33:44;;;;;;;2.05;1.95;;;1.70;99.90;;;;;;4989195;28;20123;-84
2024/01/17 08:36:10;;;;;;;2.08;1.98;;;1.70;99.90;;;;;;4988291;28;20049;-84
2024/01/17 08:38:36;;;;;;;2.08;1.98;;;1.70;99.90;;;;;;4987245;28;20096;-84
2024/01/17 08:41:02;;;;;;;2.10;2.00;;;1.70;99.90;;;;;;4983320;28;20678;-82
2024/01/17 08:43:27;;;;;;;2.05;1.95;;;1.80;99.90;;;;;;4973529;28;20049;-83
2024/01/17 08:45:53;;;;;;;2.00;1.90;;;1.80;99.90;;;;;;4985880;28;20210;-83
2024/01/17 08:48:19;;;;;;;1.98;1.88;;;1.80;99.90;;;;;;4984819;28;20041;-83
2024/01/17 08:50:45;;;;;;;2.03;1.92;;;1.80;99.90;;;;;;4988265;28;20046;-82
2024/01/17 08:53:11;;;;;;;2.10;2.00;;;1.90;99.90;;;;;;4988936;28;20775;-83
2024/01/17 08:55:37;;;;;;;1.92;1.83;;;2.00;99.90;;;;;;4985561;28;20104;-83
2024/01/17 08:58:02;;;;;;;1.95;1.85;;;1.90;99.90;;;;;;4986872;28;20050;-83
2024/01/17 09:00:28;;;;;;;1.88;1.77;;;2.10;99.90;;;;;;4987837;28;20073;-83
2024/01/17 09:03:09;;;;;;;1.90;1.80;;;2.10;99.90;;;;;;4985664;28;20137;-82
2024/01/17 09:05:35;;;;;;;1.90;1.80;;;2.10;99.90;;;;;;4983934;28;20045;-82
2024/01/17 09:08:01;;;;;;;1.98;1.88;;;2.20;99.90;;;;;;4981516;28;20038;-84
2024/01/17 09:10:27;;;;;;;1.70;1.60;;;2.20;99.90;;;;;;4971465;28;20132;-82
2024/01/17 09:12:52;;;;;;;1.67;1.58;;;2.40;99.90;;;;;;4988587;28;20084;-82
2024/01/17 09:15:18;;;;;;;1.60;1.50;;;2.30;99.90;;;;;;4986676;28;20133;-83
2024/01/17 09:17:44;;;;;;;1.70;1.60;;;2.30;99.90;;;;;;4989859;28;20049;-83
2024/01/17 09:20:10;;;;;;;1.60;1.50;;;2.40;99.90;;;;;;4985576;28;20488;-83
2024/01/17 09:22:36;;;;;;;1.73;1.63;;;2.40;99.90;;;;;;4971079;28;20054;-81
2024/01/17 09:25:02;;;;;;;1.70;1.60;;;2.40;99.90;;;;;;5002195;28;20116;-81
2024/01/17 09:27:31;;;;;;;1.70;1.60;;;2.40;99.90;;;;;;4984409;28;20076;-82
2024/01/17 09:29:57;;;;;;;1.67;1.58;;;2.40;99.90;;;;;;4981426;28;20046;-82
2024/01/17 09:32:22;;;;;;;1.73;1.63;;;2.40;99.90;;;;;;4988692;28;20529;-80
2024/01/17 09:34:48;;;;;;;1.60;1.50;;;2.50;99.90;;;;;;5004187;28;20045;-82
2024/01/17 09:37:17;;;;;;;1.60;1.50;;;2.50;99.90;;;;;;4985990;28;20070;-82
2024/01/17 09:39:43;;;;;;;1.60;1.50;;;2.60;99.90;;;;;;5004747;28;20141;-81
2024/01/17 09:42:10;;;;;;;1.70;1.60;;;2.60;99.90;;;;;;4988576;28;20188;-81
2024/01/17 09:44:36;;;;;;;1.60;1.50;;;2.50;99.90;;;;;;4988736;28;20065;-82
2024/01/17 09:47:04;;;;;;;1.60;1.50;;;2.60;99.90;;;;;;4984485;28;20046;-82
2024/01/17 09:49:31;;;;;;;2.17;1.70;;;2.60;99.90;;;;;;4984072;28;20505;-81
2024/01/17 09:52:03;;;;;;;1.70;1.60;;;2.60;99.90;;;;;;5000829;28;20054;-82
2024/01/17 09:54:32;;;;;;;1.65;1.55;;;2.60;99.90;;;;;;4988054;28;20056;-81
2024/01/17 09:57:03;;;;;;;1.70;1.60;;;2.70;89.20;;;;;;4990616;28;20108;-82
2024/01/17 09:59:33;;;;;;;1.60;1.50;;;2.70;79.00;;;;;;4988505;28;20936;-81
2024/01/17 10:02:00;;;;;;;1.60;1.50;;;2.80;99.90;;;;;;4987097;28;20050;-81
2024/01/17 10:04:26;;;;;;;1.63;1.52;;;2.80;80.50;;;;;;4972785;28;20734;-82
2024/01/17 10:06:55;;;;;;;1.60;1.50;;;2.90;80.80;;;;;;4971662;28;20450;-82
2024/01/17 10:09:24;;;;;;;1.65;1.55;;;2.90;92.00;;;;;;4985466;28;20046;-81
2024/01/17 10:11:51;;;;;;;1.60;1.50;;;2.90;40.40;;;;;;4984587;28;20041;-82
2024/01/17 10:14:17;;;;;;;1.40;1.35;;;3.00;69.90;;;;;;5004614;28;20048;-82
2024/01/17 10:16:43;;;;;;;1.60;1.50;;;3.00;50.60;;;;;;4988364;28;20042;-81
2024/01/17 10:19:09;;;;;;;1.52;1.42;;;2.90;23.90;;;;;;5007553;28;20044;-81
2024/01/17 10:21:35;;;;;;;1.55;1.45;;;3.00;15.80;;;;;;4988210;28;20399;-81
2024/01/17 10:24:01;;;;;;;1.33;1.33;;;3.10;33.10;;;;;;4988547;28;20050;-81
2024/01/17 10:26:27;;;;;;;1.30;1.30;;;3.10;23.10;;;;;;4986141;28;20493;-81
2024/01/17 10:28:53;;;;;;;1.58;1.48;;;3.10;4.30;;;;;;4980923;28;20042;-81
2024/01/17 10:31:21;;;;;;;1.38;1.38;;;3.10;1.00;;;;;;4982930;28;20045;-81
2024/01/17 10:33:49;;;;;;;1.50;1.40;;;3.10;1.00;;;;;;4982346;28;20064;-81
2024/01/17 10:36:15;;;;;;;1.60;1.50;;;3.20;1.00;;;;;;4985322;28;20112;-81
2024/01/17 10:38:40;;;;;;;1.50;1.40;;;3.20;1.00;;;;;;4985786;28;20054;-81
2024/01/17 10:41:10;;;;;;;1.50;1.40;;;3.30;5.40;;;;;;4986422;28;20046;-81
2024/01/17 10:43:53;;;;;;;1.60;1.50;;;3.30;1.00;;;;;;4986305;28;20056;-82
2024/01/17 10:46:19;;;;;;;1.42;1.40;;;3.30;1.00;;;;;;4983827;28;20100;-81
2024/01/17 10:48:46;;;;;;;1.58;1.48;;;3.40;1.00;;;;;;4987262;28;20038;-81
2024/01/17 10:51:19;;;;;;;1.50;1.40;;;3.30;1.00;;;;;;4988739;28;20046;-81
2024/01/17 10:53:46;;;;;;;;;;;3.30;1.00;;;;;;4990203;28;20047;-81
2024/01/17 10:56:14;;;;;;;1.58;1.48;;;3.30;1.00;;;;;;4986077;28;19925;-81
2024/01/17 10:58:41;;;;;;;1.50;1.40;;;3.30;1.00;;;;;;4990059;28;20045;-81
2024/01/17 11:01:14;;;;;;;1.50;1.40;;;3.40;1.00;;;;;;4982579;28;20299;-81
2024/01/17 11:03:43;;;;;;;1.40;1.38;;;3.50;6.60;;;;;;4984005;28;20670;-81
2024/01/17 11:06:09;;;;;;;1.33;1.33;;;3.60;8.10;;;;;;4990505;28;20497;-81
2024/01/17 11:08:36;;;;;;;1.50;1.40;;;3.50;1.00;;;;;;4988902;28;20099;-81
2024/01/17 11:11:04;;;;;;;1.33;1.33;;;3.60;1.00;;;;;;4990254;28;20107;-81
2024/01/17 11:13:29;;;;;;;1.30;1.30;;;3.50;1.00;;;;;;4992332;28;20042;-81
2024/01/17 11:15:59;;;;;;;1.30;1.30;;;3.60;1.00;;;;;;4991151;28;20114;-81
2024/01/17 11:18:27;;;;;;;1.35;1.33;;;3.60;1.00;;;;;;4988157;28;20534;-81
2024/01/17 11:20:54;;;;;;;1.30;1.30;;;3.60;1.00;;;;;;4974722;28;20046;-81
2024/01/17 11:23:29;;;;;;;1.27;1.27;;;3.60;1.00;;;;;;4975582;28;20124;-80
2024/01/17 11:26:13;;;;;;;1.30;1.30;;;3.60;1.00;;;;;;4990828;28;20050;-81
2024/01/17 11:29:14;;;;;;;1.35;1.30;;;3.50;1.00;;;;;;4987296;28;20432;-81
2024/01/17 11:32:19;;;;;;;1.50;1.40;;;3.60;1.00;;;;;;4972400;28;20135;-81
2024/01/17 11:34:48;;;;;;;1.50;1.40;;;3.60;1.00;;;;;;5005141;28;20054;-81
2024/01/17 11:37:30;;;;;;;1.40;1.35;;;3.60;1.00;;;;;;4972050;28;20056;-81
2024/01/17 11:39:56;;;;;;;1.30;1.30;;;3.70;1.00;;;;;;4988991;28;20065;-81
2024/01/17 11:42:22;;;;;;;1.55;1.45;;;3.80;1.00;;;;;;4986924;28;20049;-81
2024/01/17 11:44:53;;;;;;;1.33;1.33;;;3.80;1.00;;;;;;4988595;28;20049;-81
2024/01/17 11:47:22;;;;;;;1.30;1.30;;;3.80;1.00;;;;;;5006158;28;20061;-80
2024/01/17 11:49:49;;;;;;;1.33;1.30;;;3.80;1.00;;;;;;4987128;28;20034;-81
2024/01/17 11:52:34;;;;;;;1.30;1.30;;;3.80;1.00;;;;;;4985989;28;20132;-81
2024/01/17 11:55:01;;;;;;;1.30;1.30;;;3.90;1.00;;;;;;4983683;28;20046;-81
2024/01/17 11:57:28;;;;;;;1.23;1.23;;;3.90;1.00;;;;;;4985980;28;20046;-81
2024/01/17 12:00:05;;;;;;;1.30;1.30;;;3.90;1.00;;;;;;4989510;28;20135;-80
2024/01/17 12:02:38;;;;;;;1.30;1.30;;;3.90;1.00;;;;;;4987570;28;20089;-81
2024/01/17 12:05:05;;;;;;;;;;;3.90;1.00;;;;;;4992652;28;20048;-81
2024/01/17 12:07:31;;;;;;;1.30;1.30;;;4.00;1.00;;;;;;4995230;28;19972;-81
2024/01/17 12:09:57;;;;;;;1.27;1.27;;;4.00;1.00;;;;;;4992677;28;20057;-81
2024/01/17 12:12:22;;;;;;;1.30;1.30;;;4.00;1.00;;;;;;4992223;28;20057;-80
2024/01/17 12:14:48;;;;;;;1.25;1.25;;;4.00;1.00;;;;;;4993267;28;20045;-81
2024/01/17 12:17:15;;;;;;;1.20;1.20;;;4.10;1.00;;;;;;5008512;28;20050;-80
2024/01/17 12:19:40;;;;;;;1.40;1.33;;;4.00;1.00;;;;;;4989915;28;20061;-80
2024/01/17 12:22:08;;;;;;;1.30;1.30;;;4.10;1.00;;;;;;5007788;28;20373;-80
2024/01/17 12:24:35;;;;;;;1.45;1.38;;;4.10;1.00;;;;;;4992425;28;20120;-81
2024/01/17 12:27:05;;;;;;;1.27;1.27;;;4.10;1.00;;;;;;4992676;28;20041;-80
2024/01/17 12:29:32;;;;;;;1.30;1.30;;;4.10;1.00;;;;;;4991430;28;20089;-81
2024/01/17 12:31:58;;;;;;;1.42;1.35;;;4.20;1.00;;;;;;4990182;28;20080;-80
2024/01/17 12:34:24;;;;;;;1.33;1.33;;;4.20;1.00;;;;;;4989765;28;20092;-80
2024/01/17 12:36:50;;;;;;;1.48;1.38;;;4.20;1.00;;;;;;4988952;28;20041;-80
2024/01/17 12:39:16;;;;;;;1.30;1.30;;;4.20;1.00;;;;;;4985093;28;20147;-80
2024/01/17 12:41:42;;;;;;;1.42;1.38;;;4.20;1.00;;;;;;4990753;28;20053;-80
2024/01/17 12:44:08;;;;;;;1.30;1.30;;;4.20;1.00;;;;;;5004667;28;20689;-80
2024/01/17 12:46:34;;;;;;;1.30;1.30;;;4.20;1.00;;;;;;4988909;28;20599;-80
2024/01/17 12:49:01;;;;;;;1.35;1.33;;;4.20;1.00;;;;;;4988601;28;20081;-80
2024/01/17 12:51:29;;;;;;;1.30;1.30;;;4.10;1.00;;;;;;4987054;28;20054;-80
2024/01/17 12:53:56;;;;;;;1.50;1.40;;;4.10;1.00;;;;;;5007294;28;20058;-80
2024/01/17 12:56:22;;;;;;;1.30;1.30;;;4.00;1.00;;;;;;4987992;28;20115;-80
2024/01/17 12:58:47;;;;;;;1.33;1.30;;;4.10;1.00;;;;;;4989152;28;20058;-80
2024/01/17 13:01:14;;;;;;;1.23;1.23;;;4.10;1.00;;;;;;4985931;28;20512;-80
2024/01/17 13:03:42;;;;;;;1.30;1.30;;;4.00;1.00;;;;;;4987137;28;20180;-80
2024/01/17 13:06:08;;;;;;;1.50;1.40;;;4.10;1.00;;;;;;4990239;28;20064;-80